^^
Your Local Weather - Clay, NY Station Historical Data
Daily Summary for April 21, 2017 Units:  Metric    English   Both
« Previous Day
Next Day »
Daily Weekly Monthly Yearly Custom
  High: Low: Average:
Temperature: 14.9 °C 9.3 °C 11.1 °C
Dew Point: 11.1 °C 5.1 °C 8.6 °C
Humidity: 94% 69% 85%
Wind Speed: 9.7km/h 0km/h 3.9km/h
Wind Gust: 20.9km/h - -
Wind- - SSW
Pressure: 1013.4 hPa 1007 hPa -
Precipitation: 5.33 mm    
Historical Graphs
 
 
Tabular Data for April 21, 2017
Time Temperature Dew Point Pressure Wind Wind Speed Wind Gust Humidity Rainfall Rate (Hourly) solar
00:04 10.7 °C 9.6 °C 1010 hPa East 4.8 km/h 11.3 km/h 93% 2.03 mm 0 W/m2
00:10 10.7 °C 9.6 °C 1009.7 hPa ENE 4.8 km/h 4.8 km/h 93% 2.03 mm 0 W/m2
00:16 10.7 °C 9.6 °C 1009 hPa ENE 4.8 km/h 6.4 km/h 93% 2.29 mm 0 W/m2
00:22 10.7 °C 9.6 °C 1008.7 hPa East 6.4 km/h 6.4 km/h 93% 2.29 mm 0 W/m2
00:28 10.6 °C 9.5 °C 1008.4 hPa SE 6.4 km/h 16.1 km/h 93% 1.27 mm 0 W/m2
00:34 10.6 °C 9.4 °C 1009 hPa NE 6.4 km/h 6.4 km/h 93% 1.27 mm 0 W/m2
00:40 10.7 °C 9.6 °C 1009 hPa ENE 4.8 km/h 4.8 km/h 93% 1.27 mm 0 W/m2
00:46 10.7 °C 9.6 °C 1009.4 hPa NE 3.2 km/h 8 km/h 93% 0 mm 0 W/m2
00:52 10.6 °C 9.5 °C 1009 hPa ENE 3.2 km/h 4.8 km/h 93% 0 mm 0 W/m2
01:04 10.3 °C 9.2 °C 1008.7 hPa ENE 6.4 km/h 12.9 km/h 93% 0 mm 0 W/m2
01:10 10.3 °C 9.2 °C 1008.7 hPa ENE 4.8 km/h 4.8 km/h 93% 0 mm 0 W/m2
01:16 10.2 °C 9.2 °C 1008.7 hPa NE 3.2 km/h 6.4 km/h 93% 0 mm 0 W/m2
01:22 10.1 °C 9.1 °C 1008.4 hPa ENE 4.8 km/h 4.8 km/h 93% 0 mm 0 W/m2
01:28 10.1 °C 9.1 °C 1008.4 hPa NE 4.8 km/h 6.4 km/h 93% 0 mm 0 W/m2
01:34 10.1 °C 9.2 °C 1008.7 hPa ENE 3.2 km/h 4.8 km/h 94% 0 mm 0 W/m2
01:40 10.1 °C 9.2 °C 1008.4 hPa East 3.2 km/h 4.8 km/h 94% 0 mm 0 W/m2
01:46 10.1 °C 9.2 °C 1008.4 hPa ENE 3.2 km/h 6.4 km/h 94% 0 mm 0 W/m2
01:52 10.1 °C 9.2 °C 1008 hPa NE 6.4 km/h 6.4 km/h 94% 0 mm 0 W/m2
01:58 10.1 °C 9 °C 1008 hPa ENE 6.4 km/h 8 km/h 93% 0 mm 0 W/m2
02:04 10.1 °C 9.1 °C 1008 hPa ENE 6.4 km/h 11.3 km/h 94% 0 mm 0 W/m2
02:10 10.1 °C 9.1 °C 1008 hPa NE 6.4 km/h 8 km/h 94% 0 mm 0 W/m2
02:16 10.1 °C 9.1 °C 1008 hPa ENE 3.2 km/h 8 km/h 94% 0 mm 0 W/m2
02:22 10 °C 9.1 °C 1008 hPa East 4.8 km/h 4.8 km/h 94% 0 mm 0 W/m2
02:28 9.9 °C 9 °C 1007.7 hPa ENE 4.8 km/h 4.8 km/h 94% 0 mm 0 W/m2
02:34 9.9 °C 9 °C 1008 hPa NE 4.8 km/h 4.8 km/h 94% 1.02 mm 0 W/m2
02:40 9.9 °C 9 °C 1007.7 hPa NE 3.2 km/h 3.2 km/h 94% 1.02 mm 0 W/m2
02:46 10 °C 9.1 °C 1007.7 hPa East 4.8 km/h 8 km/h 94% 1.02 mm 0 W/m2
02:52 10 °C 9.1 °C 1007.7 hPa East 4.8 km/h 4.8 km/h 94% 0 mm 0 W/m2
02:58 10.1 °C 9.1 °C 1007.7 hPa ENE 4.8 km/h 9.7 km/h 94% 0 mm 0 W/m2
03:04 10.1 °C 9.2 °C 1007.7 hPa NE 4.8 km/h 4.8 km/h 94% 0 mm 0 W/m2
03:10 10.1 °C 9.2 °C 1007.7 hPa ENE 4.8 km/h 4.8 km/h 94% 0 mm 0 W/m2
03:16 10.2 °C 9.2 °C 1007.7 hPa ENE 4.8 km/h 4.8 km/h 94% 0 mm 0 W/m2
03:22 10.1 °C 9.2 °C 1007 hPa East 6.4 km/h 8 km/h 94% 2.54 mm 0 W/m2
03:28 10.1 °C 9.1 °C 1007.3 hPa NE 6.4 km/h 8 km/h 94% 2.54 mm 0 W/m2
03:34 10.1 °C 9.1 °C 1007.3 hPa NNE 3.2 km/h 11.3 km/h 94% 1.52 mm 0 W/m2
03:40 10.1 °C 9.1 °C 1007.3 hPa ENE 4.8 km/h 4.8 km/h 94% 1.02 mm 0 W/m2
03:46 10 °C 9.1 °C 1007.3 hPa NE 6.4 km/h 6.4 km/h 94% 0 mm 0 W/m2
03:52 9.9 °C 9 °C 1007.3 hPa ENE 6.4 km/h 6.4 km/h 94% 0 mm 0 W/m2
03:58 9.9 °C 8.9 °C 1007.3 hPa ENE 6.4 km/h 6.4 km/h 94% 0 mm 0 W/m2
04:04 9.8 °C 8.9 °C 1007.3 hPa East 6.4 km/h 11.3 km/h 94% 0 mm 0 W/m2
04:10 9.8 °C 8.8 °C 1007.3 hPa NNE 6.4 km/h 8 km/h 94% 0 mm 0 W/m2
04:22 9.7 °C 8.7 °C 1007.3 hPa ENE 9.7 km/h 11.3 km/h 94% 0 mm 0 W/m2
04:28 9.7 °C 8.7 °C 1007.3 hPa ENE 8 km/h 11.3 km/h 94% 0 mm 0 W/m2
04:34 9.7 °C 8.7 °C 1007.3 hPa ENE 6.4 km/h 9.7 km/h 94% 0 mm 0 W/m2
04:40 9.7 °C 8.7 °C 1007.3 hPa NE 6.4 km/h 6.4 km/h 94% 0 mm 0 W/m2
04:46 9.7 °C 8.7 °C 1007.3 hPa ENE 4.8 km/h 8 km/h 94% 0 mm 0 W/m2
04:52 9.7 °C 8.7 °C 1007.3 hPa ENE 6.4 km/h 14.5 km/h 94% 0 mm 0 W/m2
04:58 9.6 °C 8.7 °C 1007.3 hPa East 6.4 km/h 14.5 km/h 94% 0 mm 0 W/m2
05:04 9.6 °C 8.7 °C 1007 hPa East 6.4 km/h 8 km/h 94% 0 mm 0 W/m2
05:10 9.6 °C 8.6 °C 1007 hPa ENE 6.4 km/h 8 km/h 94% 0 mm 0 W/m2
05:16 9.6 °C 8.6 °C 1007 hPa ESE 6.4 km/h 9.7 km/h 94% 0 mm 0 W/m2
05:22 9.6 °C 8.6 °C 1007 hPa ENE 6.4 km/h 6.4 km/h 94% 0 mm 0 W/m2
05:28 9.6 °C 8.7 °C 1007 hPa ENE 4.8 km/h 11.3 km/h 94% 0 mm 0 W/m2
05:34 9.6 °C 8.7 °C 1007.3 hPa ENE 4.8 km/h 6.4 km/h 94% 0 mm 0 W/m2
05:40 9.7 °C 8.7 °C 1007.3 hPa ENE 3.2 km/h 6.4 km/h 94% 0 mm 0 W/m2
05:46 9.7 °C 8.8 °C 1007.3 hPa ENE 3.2 km/h 6.4 km/h 94% 0 mm 0 W/m2
05:52 9.8 °C 8.8 °C 1007 hPa ENE 4.8 km/h 8 km/h 94% 0 mm 0 W/m2
05:58 9.8 °C 8.8 °C 1007.3 hPa ENE 4.8 km/h 8 km/h 94% 0 mm 0 W/m2
06:04 9.8 °C 8.9 °C 1007.3 hPa ENE 4.8 km/h 4.8 km/h 94% 0 mm 0 W/m2
06:10 9.9 °C 8.9 °C 1007.3 hPa ENE 3.2 km/h 6.4 km/h 94% 0 mm 0 W/m2
06:16 9.9 °C 9 °C 1007.3 hPa ENE 3.2 km/h 6.4 km/h 94% 0 mm 0 W/m2
06:22 10 °C 9.1 °C 1007.3 hPa ENE 4.8 km/h 6.4 km/h 94% 0 mm 0 W/m2
06:28 10.1 °C 9.1 °C 1007.3 hPa ENE 4.8 km/h 6.4 km/h 94% 0 mm 0 W/m2
06:34 10.1 °C 9.2 °C 1007 hPa ESE 4.8 km/h 8 km/h 94% 0 mm 0 W/m2
06:40 10.1 °C 9.2 °C 1007.3 hPa East 3.2 km/h 8 km/h 94% 0 mm 5 W/m2
06:46 10.2 °C 9.2 °C 1007.3 hPa ENE 3.2 km/h 8 km/h 94% 0 mm 0 W/m2
06:52 10.3 °C 9.3 °C 1007.3 hPa ENE 4.8 km/h 4.8 km/h 94% 0 mm 0 W/m2
07:04 10.3 °C 9.4 °C 1007.3 hPa ENE 4.8 km/h 4.8 km/h 94% 0 mm 5 W/m2
07:10 10.3 °C 9.4 °C 1007.3 hPa ENE 3.2 km/h 8 km/h 94% 0 mm 12 W/m2
07:16 10.4 °C 9.5 °C 1007.3 hPa ENE 4.8 km/h 8 km/h 94% 0 mm 40 W/m2
07:22 10.5 °C 9.6 °C 1007.3 hPa NE 4.8 km/h 6.4 km/h 94% 0 mm 35 W/m2
07:28 10.6 °C 9.7 °C 1007.3 hPa ENE 4.8 km/h 6.4 km/h 94% 0 mm 21 W/m2
07:34 10.6 °C 9.5 °C 1007.7 hPa East 4.8 km/h 4.8 km/h 93% 0 mm 25 W/m2
07:40 10.7 °C 9.6 °C 1007.7 hPa East 3.2 km/h 3.2 km/h 93% 0 mm 7 W/m2
07:46 10.8 °C 9.8 °C 1007.7 hPa ENE 3.2 km/h 6.4 km/h 94% 0 mm 26 W/m2
07:52 10.8 °C 9.7 °C 1007.7 hPa ENE 4.8 km/h 4.8 km/h 93% 0 mm 51 W/m2
07:58 10.9 °C 9.8 °C 1007.7 hPa ENE 3.2 km/h 6.4 km/h 93% 0 mm 23 W/m2
08:04 10.8 °C 9.7 °C 1007.7 hPa NE 3.2 km/h 3.2 km/h 93% 0 mm 26 W/m2
08:10 10.8 °C 9.7 °C 1007.7 hPa ENE 3.2 km/h 3.2 km/h 93% 0 mm 26 W/m2
08:16 10.8 °C 9.7 °C 1007.7 hPa East 3.2 km/h 9.7 km/h 93% 0 mm 58 W/m2
08:22 10.9 °C 9.8 °C 1007.7 hPa East 4.8 km/h 11.3 km/h 93% 0 mm 102 W/m2
08:28 11.2 °C 10.1 °C 1007.3 hPa ENE 6.4 km/h 11.3 km/h 93% 0 mm 160 W/m2
08:34 11.3 °C 10.2 °C 1007.3 hPa East 6.4 km/h 6.4 km/h 93% 0 mm 81 W/m2
08:40 11.5 °C 10.4 °C 1007.3 hPa NE 4.8 km/h 4.8 km/h 93% 0 mm 77 W/m2
08:46 11.7 °C 10.6 °C 1007.3 hPa ENE 4.8 km/h 12.9 km/h 93% 0 mm 62 W/m2
08:52 11.8 °C 10.5 °C 1007.3 hPa East 4.8 km/h 4.8 km/h 92% 0 mm 51 W/m2
08:58 11.9 °C 10.6 °C 1007.3 hPa ENE 3.2 km/h 4.8 km/h 92% 0 mm 72 W/m2
09:04 11.9 °C 10.7 °C 1007.3 hPa East 3.2 km/h 8 km/h 92% 0 mm 51 W/m2
09:10 12.1 °C 10.8 °C 1007.3 hPa East 3.2 km/h 3.2 km/h 92% 0 mm 51 W/m2
09:16 12.1 °C 10.8 °C 1007.7 hPa NNW 3.2 km/h 4.8 km/h 92% 0 mm 26 W/m2
09:22 11.9 °C 10.7 °C 1008 hPa NNW 4.8 km/h 4.8 km/h 92% 0 mm 46 W/m2
09:28 11.6 °C 10.1 °C 1008 hPa NW 4.8 km/h 6.4 km/h 91% 0 mm 14 W/m2
09:34 11.4 °C 9.9 °C 1008 hPa NW 4.8 km/h 6.4 km/h 91% 0 mm 16 W/m2
09:40 11.3 °C 9.9 °C 1008 hPa NW 3.2 km/h 3.2 km/h 91% 0 mm 35 W/m2
09:46 11.2 °C 9.8 °C 1008.4 hPa NW 3.2 km/h 3.2 km/h 91% 20.07 mm 30 W/m2
09:52 11.2 °C 9.9 °C 1008.4 hPa NW 3.2 km/h 4.8 km/h 92% 9.65 mm 91 W/m2
09:58 11.2 °C 9.9 °C 1008 hPa NNW 4.8 km/h 8 km/h 92% 3.3 mm 121 W/m2
10:04 11.3 °C 10.1 °C 1008 hPa NW 4.8 km/h 4.8 km/h 92% 2.03 mm 84 W/m2
10:10 11.4 °C 10.1 °C 1008 hPa NNW 3.2 km/h 3.2 km/h 92% 1.02 mm 51 W/m2
10:16 11.3 °C 10.1 °C 1008 hPa NNW 3.2 km/h 3.2 km/h 92% 0 mm 51 W/m2
10:22 11.3 °C 10 °C 1008 hPa NNW 3.2 km/h 3.2 km/h 92% 0 mm 53 W/m2
10:28 11.2 °C 9.9 °C 1008.4 hPa NE 3.2 km/h 3.2 km/h 92% 0 mm 32 W/m2
10:34 11.2 °C 9.9 °C 1009 hPa NE 1.6 km/h 1.6 km/h 92% 0 mm 23 W/m2
10:40 11.2 °C 9.9 °C 1009 hPa Calm     92% 0 mm 44 W/m2
10:46 11.2 °C 9.9 °C 1009 hPa Calm     92% 5.08 mm 76 W/m2
10:52 11.3 °C 10.2 °C 1009 hPa Calm     93% 1.52 mm 148 W/m2
10:58 11.5 °C 10.4 °C 1009 hPa Calm     93% 1.02 mm 171 W/m2
11:04 11.7 °C 10.6 °C 1009 hPa Calm     93% 0 mm 116 W/m2
11:10 11.8 °C 10.7 °C 1009 hPa Calm   1.6 km/h 93% 0 mm 149 W/m2
11:16 11.8 °C 10.7 °C 1009 hPa NW 1.6 km/h 6.4 km/h 93% 0 mm 107 W/m2
11:22 11.8 °C 10.5 °C 1009.4 hPa NNW 1.6 km/h 3.2 km/h 92% 0 mm 83 W/m2
11:28 11.7 °C 10.4 °C 1009 hPa North 3.2 km/h 3.2 km/h 92% 0 mm 167 W/m2
11:34 11.7 °C 10.4 °C 1009.4 hPa North 3.2 km/h 4.8 km/h 92% 0 mm 179 W/m2
11:40 11.8 °C 10.3 °C 1009 hPa North 1.6 km/h 1.6 km/h 91% 0 mm 218 W/m2
11:46 11.9 °C 10.4 °C 1009 hPa North 1.6 km/h 3.2 km/h 91% 0 mm 295 W/m2
11:52 12.1 °C 10.6 °C 1009 hPa North 1.6 km/h 3.2 km/h 91% 0 mm 220 W/m2
11:58 12.2 °C 10.7 °C 1009.4 hPa North 1.6 km/h 3.2 km/h 91% 0 mm 148 W/m2
12:04 12.2 °C 10.6 °C 1009.4 hPa North 1.6 km/h 3.2 km/h 90% 0 mm 264 W/m2
12:10 12.3 °C 10.5 °C 1009.4 hPa NW 3.2 km/h 4.8 km/h 89% 0 mm 237 W/m2
12:16 12.3 °C 10.2 °C 1009.4 hPa NNW 4.8 km/h 4.8 km/h 87% 0 mm 283 W/m2
12:22 12.4 °C 10.3 °C 1009.4 hPa NNW 3.2 km/h 4.8 km/h 87% 0 mm 364 W/m2
12:28 12.7 °C 10.4 °C 1009.7 hPa NW 3.2 km/h 4.8 km/h 86% 0 mm 297 W/m2
12:34 12.9 °C 10.2 °C 1009.7 hPa NNW 1.6 km/h 4.8 km/h 84% 0 mm 257 W/m2
12:40 13.2 °C 10.7 °C 1009.4 hPa NNW 1.6 km/h 1.6 km/h 85% 0 mm 459 W/m2
12:46 13.4 °C 11.1 °C 1009.4 hPa North 3.2 km/h 9.7 km/h 86% 0 mm 461 W/m2
12:50 13.1 °C 10.2 °C 1009.7 hPa NE 4.8 km/h 4.8 km/h 83% 0 mm 244 W/m2
12:56 12.9 °C 10.1 °C 1009.7 hPa North 3.2 km/h 6.4 km/h 83% 0 mm 304 W/m2
13:02 13.1 °C 10.2 °C 1009.4 hPa North 3.2 km/h 3.2 km/h 83% 0 mm 214 W/m2
13:08 13.1 °C 10.1 °C 1009.7 hPa North 3.2 km/h 6.4 km/h 82% 0 mm 260 W/m2
13:20 13.6 °C 10.6 °C 1009.4 hPa NW 3.2 km/h 3.2 km/h 82% 0 mm 877 W/m2
13:26 13.6 °C 10 °C 1009.4 hPa NW 3.2 km/h 3.2 km/h 79% 0 mm 232 W/m2
13:32 13.6 °C 9.7 °C 1009.4 hPa North 3.2 km/h 3.2 km/h 77% 0 mm 399 W/m2
13:44 13.7 °C 10.1 °C 1009 hPa NW 4.8 km/h 6.4 km/h 79% 0 mm 339 W/m2
13:50 13.9 °C 10.7 °C 1009 hPa NW 4.8 km/h 6.4 km/h 81% 0 mm 506 W/m2
13:56 14.4 °C 10.8 °C 1009 hPa SW 4.8 km/h 6.4 km/h 79% 0 mm 965 W/m2
14:02 14.9 °C 10.7 °C 1009 hPa WNW 4.8 km/h 4.8 km/h 76% 0 mm 534 W/m2
14:08 14.4 °C 9.9 °C 1009 hPa North 4.8 km/h 8 km/h 74% 0 mm 320 W/m2
14:14 14.2 °C 9.8 °C 1009 hPa North 3.2 km/h 4.8 km/h 75% 0 mm 260 W/m2
14:20 14.1 °C 10.1 °C 1009 hPa North 1.6 km/h 3.2 km/h 77% 0 mm 265 W/m2
14:26 14.7 °C 10.3 °C 1009 hPa WNW 3.2 km/h 4.8 km/h 75% 0 mm 334 W/m2
14:32 14.6 °C 10.2 °C 1009 hPa WNW 3.2 km/h 3.2 km/h 75% 0 mm 359 W/m2
14:38 14.5 °C 10.1 °C 1009 hPa WSW 1.6 km/h 4.8 km/h 75% 0 mm 496 W/m2
14:50 14.9 °C 9.9 °C 1009 hPa WNW 1.6 km/h 1.6 km/h 72% 0 mm 251 W/m2
14:56 14.7 °C 9.9 °C 1009 hPa NW 1.6 km/h 6.4 km/h 73% 0 mm 174 W/m2
15:02 14.6 °C 9.6 °C 1009 hPa NW 3.2 km/h 4.8 km/h 72% 0 mm 93 W/m2
15:08 14.5 °C 9.3 °C 1009 hPa NNW 1.6 km/h 4.8 km/h 71% 0 mm 104 W/m2
15:14 14.4 °C 9.2 °C 1009 hPa NNW 3.2 km/h 11.3 km/h 71% 0 mm 62 W/m2
15:20 14.1 °C 8.7 °C 1009 hPa NW 4.8 km/h 4.8 km/h 70% 0 mm 74 W/m2
15:26 13.9 °C 8.6 °C 1009 hPa NW 6.4 km/h 11.3 km/h 70% 0 mm 86 W/m2
15:32 13.9 °C 8.9 °C 1009 hPa NNW 4.8 km/h 4.8 km/h 72% 0 mm 72 W/m2
15:38 13.8 °C 8.7 °C 1009 hPa NW 4.8 km/h 4.8 km/h 71% 0 mm 53 W/m2
15:44 13.7 °C 8.5 °C 1009.4 hPa NNW 4.8 km/h 6.4 km/h 71% 0 mm 46 W/m2
15:50 13.6 °C 8.4 °C 1009.4 hPa NW 4.8 km/h 6.4 km/h 71% 0 mm 62 W/m2
15:56 13.4 °C 8 °C 1009.7 hPa WNW 6.4 km/h 6.4 km/h 70% 0 mm 65 W/m2
16:02 13.3 °C 8.1 °C 1009.7 hPa NNW 4.8 km/h 4.8 km/h 71% 0 mm 39 W/m2
16:08 13.2 °C 8.1 °C 1009.4 hPa NNW 3.2 km/h 4.8 km/h 71% 0 mm 39 W/m2
16:14 13.2 °C 8.2 °C 1009.7 hPa NNW 3.2 km/h 9.7 km/h 72% 0 mm 39 W/m2
16:20 13.2 °C 8 °C 1009.7 hPa NNW 3.2 km/h 3.2 km/h 71% 0 mm 39 W/m2
16:26 13.2 °C 7.8 °C 1009.7 hPa NNW 3.2 km/h 6.4 km/h 70% 0 mm 47 W/m2
16:32 13.2 °C 7.8 °C 1009.7 hPa NW 4.8 km/h 6.4 km/h 70% 0 mm 35 W/m2
16:44 13.1 °C 7.7 °C 1010 hPa NW 3.2 km/h 3.2 km/h 70% 0 mm 42 W/m2
16:50 13 °C 7.9 °C 1009.7 hPa NNW 3.2 km/h 3.2 km/h 71% 0 mm 46 W/m2
16:56 12.9 °C 7.6 °C 1009.7 hPa NNW 1.6 km/h 3.2 km/h 70% 0 mm 37 W/m2
17:02 12.9 °C 7.6 °C 1009.7 hPa NNW 1.6 km/h 3.2 km/h 70% 0 mm 37 W/m2
17:08 12.9 °C 7.8 °C 1009.7 hPa NNW 1.6 km/h 3.2 km/h 71% 0 mm 40 W/m2
17:14 12.9 °C 7.6 °C 1009.7 hPa North 1.6 km/h 3.2 km/h 70% 0 mm 58 W/m2
17:20 12.9 °C 7.8 °C 1009.7 hPa NNW 3.2 km/h 3.2 km/h 71% 0 mm 42 W/m2
17:26 12.8 °C 7.5 °C 1009.7 hPa NNW 1.6 km/h 3.2 km/h 70% 0 mm 35 W/m2
17:32 12.8 °C 7.5 °C 1010 hPa Calm     70% 0 mm 39 W/m2
17:38 12.8 °C 7.7 °C 1010 hPa Calm     71% 0 mm 33 W/m2
17:44 12.7 °C 8 °C 1010.7 hPa Calm   3.2 km/h 73% 0 mm 35 W/m2
17:50 12.7 °C 7.3 °C 1010.7 hPa NNW 3.2 km/h 14.5 km/h 70% 0 mm 32 W/m2
17:56 12.2 °C 6.7 °C 1011.1 hPa NW 9.7 km/h 20.9 km/h 69% 0 mm 39 W/m2
18:02 11.7 °C 6.6 °C 1011.1 hPa NW 8 km/h 11.3 km/h 71% 0 mm 37 W/m2
18:08 11.4 °C 6.7 °C 1011.1 hPa NNW 6.4 km/h 11.3 km/h 73% 0 mm 33 W/m2
18:14 11.2 °C 6.6 °C 1011.1 hPa NW 8 km/h 14.5 km/h 73% 0 mm 33 W/m2
18:22 11 °C 6.7 °C 1011.4 hPa NW 6.4 km/h 11.3 km/h 75% 0 mm 26 W/m2
18:28 10.9 °C 6.7 °C 1011.4 hPa NW 4.8 km/h 11.3 km/h 75% 0 mm 32 W/m2
18:34 10.9 °C 6.8 °C 1011.4 hPa West 4.8 km/h 9.7 km/h 76% 0 mm 33 W/m2
18:40 10.8 °C 6.6 °C 1011.4 hPa NNW 4.8 km/h 4.8 km/h 75% 0 mm 32 W/m2
18:46 10.8 °C 6.7 °C 1011.7 hPa NNW 3.2 km/h 4.8 km/h 76% 0 mm 32 W/m2
18:52 10.7 °C 6.7 °C 1011.7 hPa WNW 4.8 km/h 4.8 km/h 76% 0 mm 33 W/m2
18:58 10.7 °C 6.6 °C 1011.7 hPa WNW 4.8 km/h 8 km/h 76% 0 mm 46 W/m2
19:04 10.7 °C 6.6 °C 1011.7 hPa WNW 4.8 km/h 4.8 km/h 76% 0 mm 47 W/m2
19:10 10.6 °C 6.6 °C 1011.7 hPa West 3.2 km/h 11.3 km/h 76% 0 mm 39 W/m2
19:16 10.6 °C 6.6 °C 1011.7 hPa NNW 3.2 km/h 11.3 km/h 76% 0 mm 33 W/m2
19:22 10.5 °C 6.4 °C 1012.1 hPa NNW 3.2 km/h 3.2 km/h 76% 0 mm 23 W/m2
19:28 10.4 °C 6.6 °C 1012.4 hPa NW 3.2 km/h 3.2 km/h 77% 0 mm 16 W/m2
19:33 10.3 °C 6.3 °C 1012.4 hPa WNW 3.2 km/h 4.8 km/h 76% 0 mm 12 W/m2
19:40 10.3 °C 6.5 °C 1012.4 hPa WNW 1.6 km/h 1.6 km/h 77% 0 mm 7 W/m2
19:46 10.3 °C 6.4 °C 1012.4 hPa NW 1.6 km/h 3.2 km/h 77% 0 mm 5 W/m2
19:52 10.3 °C 6.4 °C 1012.4 hPa NW 1.6 km/h 1.6 km/h 77% 0 mm 0 W/m2
19:58 10.2 °C 6.4 °C 1012.4 hPa NW 1.6 km/h 3.2 km/h 77% 0 mm 0 W/m2
20:04 10.2 °C 6.3 °C 1012.4 hPa Calm   3.2 km/h 77% 0 mm 0 W/m2
20:10 10.1 °C 6.3 °C 1012.4 hPa NNW 3.2 km/h 3.2 km/h 77% 0 mm 0 W/m2
20:16 10.1 °C 6.3 °C 1012.4 hPa WNW 3.2 km/h 4.8 km/h 77% 0 mm 0 W/m2
20:22 10.1 °C 6.3 °C 1012.4 hPa WSW 1.6 km/h 1.6 km/h 77% 0 mm 0 W/m2
20:28 10.1 °C 6.2 °C 1012.4 hPa WNW 3.2 km/h 4.8 km/h 77% 0 mm 0 W/m2
20:34 10 °C 6.2 °C 1012.4 hPa NW 3.2 km/h 9.7 km/h 77% 0 mm 0 W/m2
20:40 9.9 °C 6.1 °C 1012.8 hPa NNW 4.8 km/h 4.8 km/h 77% 0 mm 0 W/m2
20:46 9.9 °C 6.1 °C 1012.8 hPa NNW 4.8 km/h 6.4 km/h 77% 0 mm 0 W/m2
20:52 9.9 °C 6.2 °C 1012.8 hPa WNW 6.4 km/h 6.4 km/h 78% 0 mm 0 W/m2
20:58 9.8 °C 6.1 °C 1013.1 hPa WNW 3.2 km/h 6.4 km/h 78% 0 mm 0 W/m2
21:04 9.7 °C 6.1 °C 1013.1 hPa WNW 3.2 km/h 6.4 km/h 78% 0 mm 0 W/m2
21:10 9.7 °C 6 °C 1013.1 hPa NNW 4.8 km/h 4.8 km/h 78% 0 mm 0 W/m2
21:16 9.8 °C 6.1 °C 1013.1 hPa WNW 4.8 km/h 4.8 km/h 78% 0 mm 0 W/m2
21:22 9.8 °C 5.9 °C 1013.1 hPa NW 3.2 km/h 6.4 km/h 77% 0 mm 0 W/m2
21:28 9.8 °C 5.9 °C 1013.4 hPa WNW 3.2 km/h 6.4 km/h 77% 0 mm 0 W/m2
21:34 9.8 °C 6 °C 1013.1 hPa WNW 3.2 km/h 6.4 km/h 77% 0 mm 0 W/m2
21:40 9.8 °C 5.9 °C 1013.4 hPa WNW 3.2 km/h 3.2 km/h 77% 0 mm 0 W/m2
21:46 9.8 °C 5.9 °C 1013.4 hPa West 3.2 km/h 3.2 km/h 77% 0 mm 0 W/m2
21:52 9.8 °C 5.9 °C 1013.4 hPa WSW 3.2 km/h 3.2 km/h 77% 0 mm 0 W/m2
21:58 9.8 °C 6 °C 1013.1 hPa WSW 3.2 km/h 3.2 km/h 77% 0 mm 0 W/m2
22:04 9.8 °C 5.9 °C 1013.1 hPa SW 1.6 km/h 3.2 km/h 77% 0 mm 0 W/m2
22:10 9.8 °C 5.9 °C 1013.1 hPa WSW 3.2 km/h 3.2 km/h 77% 0 mm 0 W/m2
22:16 9.8 °C 5.9 °C 1013.1 hPa West 1.6 km/h 3.2 km/h 77% 0 mm 0 W/m2
22:22 9.7 °C 5.9 °C 1013.1 hPa WSW 1.6 km/h 4.8 km/h 77% 0 mm 0 W/m2
22:28 9.7 °C 5.8 °C 1013.1 hPa West 3.2 km/h 4.8 km/h 77% 0 mm 0 W/m2
22:34 9.7 °C 5.8 °C 1013.1 hPa West 1.6 km/h 3.2 km/h 77% 0 mm 0 W/m2
22:40 9.6 °C 5.6 °C 1013.1 hPa West 1.6 km/h 4.8 km/h 76% 0 mm 0 W/m2
22:46 9.6 °C 5.6 °C 1013.4 hPa WNW 1.6 km/h 4.8 km/h 76% 0 mm 0 W/m2
22:52 9.7 °C 5.6 °C 1013.4 hPa WSW 3.2 km/h 3.2 km/h 76% 0 mm 0 W/m2
22:58 9.7 °C 5.6 °C 1013.4 hPa WSW 1.6 km/h 3.2 km/h 76% 0 mm 0 W/m2
23:04 9.7 °C 5.6 °C 1013.4 hPa West 1.6 km/h 1.6 km/h 76% 0 mm 0 W/m2
23:10 9.6 °C 5.6 °C 1013.4 hPa West 1.6 km/h 3.2 km/h 76% 0 mm 0 W/m2
23:16 9.5 °C 5.3 °C 1013.4 hPa NW 3.2 km/h 4.8 km/h 75% 0 mm 0 W/m2
23:22 9.4 °C 5.4 °C 1013.4 hPa WSW 1.6 km/h 3.2 km/h 76% 0 mm 0 W/m2
23:28 9.4 °C 5.4 °C 1013.4 hPa WNW 1.6 km/h 3.2 km/h 76% 0 mm 0 W/m2
23:34 9.4 °C 5.2 °C 1013.4 hPa WSW 1.6 km/h 9.7 km/h 75% 0 mm 0 W/m2
23:40 9.4 °C 5.2 °C 1013.4 hPa West 3.2 km/h 3.2 km/h 75% 0 mm 0 W/m2
23:46 9.4 °C 5.2 °C 1013.4 hPa WNW 3.2 km/h 4.8 km/h 75% 0 mm 0 W/m2
23:52 9.4 °C 5.2 °C 1013.4 hPa WNW 3.2 km/h 3.2 km/h 75% 0 mm 0 W/m2
23:58 9.3 °C 5.1 °C 1013.4 hPa WSW 3.2 km/h 6.4 km/h 75% 0 mm 0 W/m2
Country Meadow, Clay, NY, USA
Compliments of Weather Underground - 2 mb